Marianna, Florida
Current Conditions -  °F | °C
As of 4:53 PM on Thursday 23 Oct 2014 (Local Time) from KMAI Reporting Station
Clear Clear  
Wind Chill: 73°   Ceiling: Unl
Heat Index: 73°   Visibility: 10mi
Dew Point: 44°   Wind: 3mph
Humidity: 35%   Direction: 40°NE
Pressure: 30.01"   Gusts: NA
Location:  30.78°N, 85.23°W
Report Text: KMAI 232153Z AUTO 04003KT 10SM CLR 23/07 A3001 RMK AO2 SLP160 T02280067 $
Loading
Personal Weather Stations






























Interactive Weather Map New forecast layout! Learn more

10-Day Weather Forecast

Advertisements
Track Severe Weather on mobile